Kent City, MI (49330)

11:31 AM EDT on April 25, 2017 (GMT -0400)
Indian Lakes Road | | Change Station

Elev 784 ft 43.20 °N, 85.71 °W | Updated 2 minutes ago

Partly Cloudy
Partly Cloudy
63.9 °F
Feels Like 63.9 °F
N
5.0
Wind Variable Wind from SE
Gusts 8.1 mph

Today
High -- | Low -- °F
--% Chance of Precip.
Yesterday
High -- | Low -- °F
Precip. -- in
Pressure 29.76 in
Visibility 10.0 miles
Clouds Clear
Dew Point 52 °F
Humidity 66%
Rainfall 0.00 in
Snow Depth Not available.
6:44 AM 8:37 PM
Waning Crescent, 1% visible
METAR KFFX 251510Z AUTO 14007KT 10SM CLR 18/09 A2976 RMK AO2 T01760086
Pressure 29.76 in
Visibility 10.0 miles
Clouds Clear
Dew Point 52 °F
Humidity 66%
Rainfall 0.00 in
Snow Depth Not available.
6:44 AM 8:37 PM
Waning Crescent, 1% visible
METAR KFFX 251510Z AUTO 14007KT 10SM CLR 18/09 A2976 RMK AO2 T01760086

Get Severe Weather Alerts

Thanks for signing up!

Be on the lookout for a verification email in your inbox.

You'll start receiving the daily forecast at 8 AM.

×

10-Day Weather Forecast

Almanac

Astronomy

Apr. 25, 2017 Rise Set
Actual Time
Civil Twilight
Nautical Twilight
Astronomical Twilight
Moon
Length of Visible Light
Length of Day
Tomorrow will be .
, % of the Moon is Illuminated

Today's Extremes

State Highs State Lows

Community

WunderPhotos

WunderBlog® & News

Nearby

Air Quality

  Air Quality AQ Index Pollutant
Not available.

Snow Depth

Station Depth Elevation

Earthquake Activity

City Distance Mag. Time & Date
Minimum magnitude displayed is 2.5.

Coastal Water Temperatures

Place Temperature

Stations

Nearby Weather Stations

Station Location Temp. Windchill Dew Point Humidity Wind Precip. Elev Updated Type
                   

Watches & Warnings

There are currently no watches in effect.